sensor_id;sensor_type;location;lat;lon;timestamp;temperature;humidity
17007;DHT22;8620;51.168;4.154;2022-10-16T00:01:43;14.40;99.90
17007;DHT22;8620;51.168;4.154;2022-10-16T00:04:09;14.40;99.90
17007;DHT22;8620;51.168;4.154;2022-10-16T00:06:38;14.30;99.90
17007;DHT22;8620;51.168;4.154;2022-10-16T00:09:10;14.40;99.90
17007;DHT22;8620;51.168;4.154;2022-10-16T00:11:38;14.30;99.90
17007;DHT22;8620;51.168;4.154;2022-10-16T00:14:12;14.30;99.90
17007;DHT22;8620;51.168;4.154;2022-10-16T00:16:39;14.20;99.90
17007;DHT22;8620;51.168;4.154;2022-10-16T00:19:06;14.20;99.90
17007;DHT22;8620;51.168;4.154;2022-10-16T00:21:33;14.20;99.90
17007;DHT22;8620;51.168;4.154;2022-10-16T00:24:10;14.20;99.90
17007;DHT22;8620;51.168;4.154;2022-10-16T00:26:39;14.20;99.90
17007;DHT22;8620;51.168;4.154;2022-10-16T00:29:09;14.30;99.90
17007;DHT22;8620;51.168;4.154;2022-10-16T00:31:37;14.30;99.90
17007;DHT22;8620;51.168;4.154;2022-10-16T00:34:11;14.30;99.90
17007;DHT22;8620;51.168;4.154;2022-10-16T00:36:45;14.10;99.90
17007;DHT22;8620;51.168;4.154;2022-10-16T00:39:19;14.20;99.90
17007;DHT22;8620;51.168;4.154;2022-10-16T00:41:52;14.10;99.90
17007;DHT22;8620;51.168;4.154;2022-10-16T00:50:22;14.00;99.90
17007;DHT22;8620;51.168;4.154;2022-10-16T00:52:54;13.90;99.90
17007;DHT22;8620;51.168;4.154;2022-10-16T00:55:31;14.00;99.90
17007;DHT22;8620;51.168;4.154;2022-10-16T00:58:00;13.90;99.90
17007;DHT22;8620;51.168;4.154;2022-10-16T01:00:35;13.90;99.90
17007;DHT22;8620;51.168;4.154;2022-10-16T01:03:32;13.90;99.90
17007;DHT22;8620;51.168;4.154;2022-10-16T01:10:02;13.80;99.90
17007;DHT22;8620;51.168;4.154;2022-10-16T01:15:36;13.80;99.90
17007;DHT22;8620;51.168;4.154;2022-10-16T01:18:21;13.80;99.90
17007;DHT22;8620;51.168;4.154;2022-10-16T01:21:04;13.80;99.90
17007;DHT22;8620;51.168;4.154;2022-10-16T01:23:57;13.80;99.90
17007;DHT22;8620;51.168;4.154;2022-10-16T01:29:56;13.80;99.90
17007;DHT22;8620;51.168;4.154;2022-10-16T01:36:03;13.70;99.90
17007;DHT22;8620;51.168;4.154;2022-10-16T01:38:46;13.70;99.90
17007;DHT22;8620;51.168;4.154;2022-10-16T01:41:22;13.80;99.90
17007;DHT22;8620;51.168;4.154;2022-10-16T01:44:17;13.70;99.90
17007;DHT22;8620;51.168;4.154;2022-10-16T01:46:50;13.60;99.90
17007;DHT22;8620;51.168;4.154;2022-10-16T01:49:34;13.60;99.90
17007;DHT22;8620;51.168;4.154;2022-10-16T01:52:06;13.70;99.90
17007;DHT22;8620;51.168;4.154;2022-10-16T01:55:03;13.70;99.90
17007;DHT22;8620;51.168;4.154;2022-10-16T01:57:36;13.70;99.90
17007;DHT22;8620;51.168;4.154;2022-10-16T02:00:11;13.80;99.90
17007;DHT22;8620;51.168;4.154;2022-10-16T02:02:43;13.80;99.90
17007;DHT22;8620;51.168;4.154;2022-10-16T02:08:07;13.70;99.90
17007;DHT22;8620;51.168;4.154;2022-10-16T02:10:48;13.80;99.90
17007;DHT22;8620;51.168;4.154;2022-10-16T02:13:37;13.70;99.90
17007;DHT22;8620;51.168;4.154;2022-10-16T02:16:12;13.70;99.90
17007;DHT22;8620;51.168;4.154;2022-10-16T02:18:43;13.70;99.90
17007;DHT22;8620;51.168;4.154;2022-10-16T02:24:30;13.70;99.90
17007;DHT22;8620;51.168;4.154;2022-10-16T02:29:43;13.80;99.90
17007;DHT22;8620;51.168;4.154;2022-10-16T02:32:23;13.80;99.90
17007;DHT22;8620;51.168;4.154;2022-10-16T02:34:51;13.70;99.90
17007;DHT22;8620;51.168;4.154;2022-10-16T02:37:23;13.70;99.90
17007;DHT22;8620;51.168;4.154;2022-10-16T02:39:56;13.60;99.90
17007;DHT22;8620;51.168;4.154;2022-10-16T02:42:38;13.70;99.90
17007;DHT22;8620;51.168;4.154;2022-10-16T02:45:06;13.60;99.90
17007;DHT22;8620;51.168;4.154;2022-10-16T02:47:36;13.60;99.90
17007;DHT22;8620;51.168;4.154;2022-10-16T02:50:21;13.50;99.90
17007;DHT22;8620;51.168;4.154;2022-10-16T02:52:50;13.50;99.90
17007;DHT22;8620;51.168;4.154;2022-10-16T02:55:22;13.50;99.90
17007;DHT22;8620;51.168;4.154;2022-10-16T02:58:05;13.60;99.90
17007;DHT22;8620;51.168;4.154;2022-10-16T03:00:31;13.50;99.90
17007;DHT22;8620;51.168;4.154;2022-10-16T03:03:03;13.50;99.90
17007;DHT22;8620;51.168;4.154;2022-10-16T03:05:28;13.50;99.90
17007;DHT22;8620;51.168;4.154;2022-10-16T03:08:12;13.50;99.90
17007;DHT22;8620;51.168;4.154;2022-10-16T03:10:44;13.60;99.90
17007;DHT22;8620;51.168;4.154;2022-10-16T03:13:16;13.60;99.90
17007;DHT22;8620;51.168;4.154;2022-10-16T03:15:48;13.60;99.90
17007;DHT22;8620;51.168;4.154;2022-10-16T03:18:34;13.50;99.90
17007;DHT22;8620;51.168;4.154;2022-10-16T03:21:08;13.70;99.90
17007;DHT22;8620;51.168;4.154;2022-10-16T03:23:42;13.90;99.90
17007;DHT22;8620;51.168;4.154;2022-10-16T03:26:16;13.90;99.90
17007;DHT22;8620;51.168;4.154;2022-10-16T03:28:45;13.90;99.90
17007;DHT22;8620;51.168;4.154;2022-10-16T03:31:19;13.90;99.90
17007;DHT22;8620;51.168;4.154;2022-10-16T03:33:53;13.80;99.90
17007;DHT22;8620;51.168;4.154;2022-10-16T03:36:19;13.80;99.90
17007;DHT22;8620;51.168;4.154;2022-10-16T03:38:58;13.60;99.90
17007;DHT22;8620;51.168;4.154;2022-10-16T03:41:36;13.60;99.90
17007;DHT22;8620;51.168;4.154;2022-10-16T03:44:04;13.50;99.90
17007;DHT22;8620;51.168;4.154;2022-10-16T03:46:46;13.50;99.90
17007;DHT22;8620;51.168;4.154;2022-10-16T03:49:12;13.50;99.90
17007;DHT22;8620;51.168;4.154;2022-10-16T03:52:11;13.50;99.90
17007;DHT22;8620;51.168;4.154;2022-10-16T03:54:45;13.40;99.90
17007;DHT22;8620;51.168;4.154;2022-10-16T03:57:14;13.40;99.90
17007;DHT22;8620;51.168;4.154;2022-10-16T03:59:46;13.40;99.90
17007;DHT22;8620;51.168;4.154;2022-10-16T04:02:32;13.40;99.90
17007;DHT22;8620;51.168;4.154;2022-10-16T04:05:07;13.40;99.90
17007;DHT22;8620;51.168;4.154;2022-10-16T04:07:38;13.40;99.90
17007;DHT22;8620;51.168;4.154;2022-10-16T04:10:12;13.40;99.90
17007;DHT22;8620;51.168;4.154;2022-10-16T04:12:38;13.30;99.90
17007;DHT22;8620;51.168;4.154;2022-10-16T04:15:18;13.30;99.90
17007;DHT22;8620;51.168;4.154;2022-10-16T04:17:51;13.30;99.90
17007;DHT22;8620;51.168;4.154;2022-10-16T04:20:22;13.30;99.90
17007;DHT22;8620;51.168;4.154;2022-10-16T04:22:53;13.30;99.90
17007;DHT22;8620;51.168;4.154;2022-10-16T04:25:28;13.30;99.90
17007;DHT22;8620;51.168;4.154;2022-10-16T04:27:56;13.30;99.90
17007;DHT22;8620;51.168;4.154;2022-10-16T04:30:30;13.30;99.90
17007;DHT22;8620;51.168;4.154;2022-10-16T04:33:02;13.30;99.90
17007;DHT22;8620;51.168;4.154;2022-10-16T04:35:30;13.30;99.90
17007;DHT22;8620;51.168;4.154;2022-10-16T04:37:59;13.30;99.90
17007;DHT22;8620;51.168;4.154;2022-10-16T04:40:28;13.30;99.90
17007;DHT22;8620;51.168;4.154;2022-10-16T04:43:13;13.30;99.90
17007;DHT22;8620;51.168;4.154;2022-10-16T04:45:45;13.30;99.90
17007;DHT22;8620;51.168;4.154;2022-10-16T04:48:22;13.30;99.90
17007;DHT22;8620;51.168;4.154;2022-10-16T04:50:57;13.30;99.90
17007;DHT22;8620;51.168;4.154;2022-10-16T04:53:28;13.20;99.90
17007;DHT22;8620;51.168;4.154;2022-10-16T04:56:08;13.20;99.90
17007;DHT22;8620;51.168;4.154;2022-10-16T04:58:34;13.20;99.90
17007;DHT22;8620;51.168;4.154;2022-10-16T05:01:00;13.20;99.90
17007;DHT22;8620;51.168;4.154;2022-10-16T05:03:29;13.10;99.90
17007;DHT22;8620;51.168;4.154;2022-10-16T05:06:00;13.20;99.90
17007;DHT22;8620;51.168;4.154;2022-10-16T05:08:26;13.10;99.90
17007;DHT22;8620;51.168;4.154;2022-10-16T05:11:09;13.10;99.90
17007;DHT22;8620;51.168;4.154;2022-10-16T05:13:38;13.10;99.90
17007;DHT22;8620;51.168;4.154;2022-10-16T05:16:07;13.10;99.90
17007;DHT22;8620;51.168;4.154;2022-10-16T05:18:40;13.10;99.90
17007;DHT22;8620;51.168;4.154;2022-10-16T05:21:09;13.10;99.90
17007;DHT22;8620;51.168;4.154;2022-10-16T05:23:53;13.10;99.90
17007;DHT22;8620;51.168;4.154;2022-10-16T05:26:25;13.10;99.90
17007;DHT22;8620;51.168;4.154;2022-10-16T05:28:53;13.20;99.90
17007;DHT22;8620;51.168;4.154;2022-10-16T05:31:24;13.30;99.90
17007;DHT22;8620;51.168;4.154;2022-10-16T05:34:01;13.30;99.90
17007;DHT22;8620;51.168;4.154;2022-10-16T05:36:30;13.20;99.90
17007;DHT22;8620;51.168;4.154;2022-10-16T05:39:10;13.20;99.90
17007;DHT22;8620;51.168;4.154;2022-10-16T05:41:37;13.20;99.90
17007;DHT22;8620;51.168;4.154;2022-10-16T05:44:06;13.20;99.90
17007;DHT22;8620;51.168;4.154;2022-10-16T05:46:37;13.30;99.90
17007;DHT22;8620;51.168;4.154;2022-10-16T05:49:08;13.40;99.90
17007;DHT22;8620;51.168;4.154;2022-10-16T05:51:42;13.50;99.90
17007;DHT22;8620;51.168;4.154;2022-10-16T05:54:14;13.60;99.90
17007;DHT22;8620;51.168;4.154;2022-10-16T05:56:48;13.60;99.90
17007;DHT22;8620;51.168;4.154;2022-10-16T05:59:22;13.50;99.90
17007;DHT22;8620;51.168;4.154;2022-10-16T06:01:51;13.50;99.90
17007;DHT22;8620;51.168;4.154;2022-10-16T06:04:28;13.50;99.90
17007;DHT22;8620;51.168;4.154;2022-10-16T06:07:03;13.40;99.90
17007;DHT22;8620;51.168;4.154;2022-10-16T06:09:31;13.40;99.90
17007;DHT22;8620;51.168;4.154;2022-10-16T06:12:11;13.50;99.90
17007;DHT22;8620;51.168;4.154;2022-10-16T06:14:44;13.60;99.90
17007;DHT22;8620;51.168;4.154;2022-10-16T06:17:14;13.60;99.90
17007;DHT22;8620;51.168;4.154;2022-10-16T06:19:51;13.60;99.90
17007;DHT22;8620;51.168;4.154;2022-10-16T06:22:19;13.50;99.90
17007;DHT22;8620;51.168;4.154;2022-10-16T06:24:51;13.40;99.90
17007;DHT22;8620;51.168;4.154;2022-10-16T06:27:20;13.30;99.90
17007;DHT22;8620;51.168;4.154;2022-10-16T06:29:49;13.30;99.90
17007;DHT22;8620;51.168;4.154;2022-10-16T06:32:20;13.20;99.90
17007;DHT22;8620;51.168;4.154;2022-10-16T06:34:52;13.20;99.90
17007;DHT22;8620;51.168;4.154;2022-10-16T06:37:21;13.20;99.90
17007;DHT22;8620;51.168;4.154;2022-10-16T06:39:55;13.30;99.90
17007;DHT22;8620;51.168;4.154;2022-10-16T06:42:21;13.30;99.90
17007;DHT22;8620;51.168;4.154;2022-10-16T06:44:53;13.30;99.90
17007;DHT22;8620;51.168;4.154;2022-10-16T06:47:22;13.30;99.90
17007;DHT22;8620;51.168;4.154;2022-10-16T06:49:53;13.30;99.90
17007;DHT22;8620;51.168;4.154;2022-10-16T06:52:19;13.40;99.90
17007;DHT22;8620;51.168;4.154;2022-10-16T06:54:48;13.40;99.90
17007;DHT22;8620;51.168;4.154;2022-10-16T06:57:23;13.40;99.90
17007;DHT22;8620;51.168;4.154;2022-10-16T06:59:51;13.50;99.90
17007;DHT22;8620;51.168;4.154;2022-10-16T07:02:22;13.50;99.90
17007;DHT22;8620;51.168;4.154;2022-10-16T07:04:53;13.60;99.90
17007;DHT22;8620;51.168;4.154;2022-10-16T07:07:22;13.60;99.90
17007;DHT22;8620;51.168;4.154;2022-10-16T07:09:50;13.50;99.90
17007;DHT22;8620;51.168;4.154;2022-10-16T07:12:21;13.50;99.90
17007;DHT22;8620;51.168;4.154;2022-10-16T07:14:50;13.50;99.90
17007;DHT22;8620;51.168;4.154;2022-10-16T07:17:17;13.80;99.90
17007;DHT22;8620;51.168;4.154;2022-10-16T07:19:46;13.80;99.90
17007;DHT22;8620;51.168;4.154;2022-10-16T07:22:13;13.80;99.90
17007;DHT22;8620;51.168;4.154;2022-10-16T07:24:39;13.80;99.90
17007;DHT22;8620;51.168;4.154;2022-10-16T07:27:05;13.90;99.90
17007;DHT22;8620;51.168;4.154;2022-10-16T07:29:30;14.00;99.90
17007;DHT22;8620;51.168;4.154;2022-10-16T07:31:56;14.10;99.90
17007;DHT22;8620;51.168;4.154;2022-10-16T07:34:25;14.30;99.90
17007;DHT22;8620;51.168;4.154;2022-10-16T07:36:52;14.10;99.90
17007;DHT22;8620;51.168;4.154;2022-10-16T07:39:22;14.10;99.90
17007;DHT22;8620;51.168;4.154;2022-10-16T07:41:50;14.30;99.90
17007;DHT22;8620;51.168;4.154;2022-10-16T07:44:16;14.40;99.90
17007;DHT22;8620;51.168;4.154;2022-10-16T07:46:42;14.70;99.90
17007;DHT22;8620;51.168;4.154;2022-10-16T07:49:08;14.90;99.90
17007;DHT22;8620;51.168;4.154;2022-10-16T07:51:36;14.70;99.90
17007;DHT22;8620;51.168;4.154;2022-10-16T07:54:05;14.80;99.90
17007;DHT22;8620;51.168;4.154;2022-10-16T07:56:31;15.30;99.90
17007;DHT22;8620;51.168;4.154;2022-10-16T07:58:58;15.70;99.90
17007;DHT22;8620;51.168;4.154;2022-10-16T08:01:24;16.00;99.90
17007;DHT22;8620;51.168;4.154;2022-10-16T08:03:55;16.60;99.90
17007;DHT22;8620;51.168;4.154;2022-10-16T08:06:22;17.20;99.90
17007;DHT22;8620;51.168;4.154;2022-10-16T08:08:49;17.90;99.90
17007;DHT22;8620;51.168;4.154;2022-10-16T08:11:15;17.90;99.90
17007;DHT22;8620;51.168;4.154;2022-10-16T08:13:42;18.30;99.90
17007;DHT22;8620;51.168;4.154;2022-10-16T08:16:08;18.00;99.90
17007;DHT22;8620;51.168;4.154;2022-10-16T08:18:37;17.70;99.90
17007;DHT22;8620;51.168;4.154;2022-10-16T08:21:07;17.80;99.90
17007;DHT22;8620;51.168;4.154;2022-10-16T08:23:46;18.60;99.90
17007;DHT22;8620;51.168;4.154;2022-10-16T08:26:32;18.70;99.90
17007;DHT22;8620;51.168;4.154;2022-10-16T08:28:58;18.60;99.90
17007;DHT22;8620;51.168;4.154;2022-10-16T08:31:24;18.50;99.90
17007;DHT22;8620;51.168;4.154;2022-10-16T08:34:00;19.30;99.90
17007;DHT22;8620;51.168;4.154;2022-10-16T08:36:26;19.60;99.90
17007;DHT22;8620;51.168;4.154;2022-10-16T08:39:07;19.70;99.90
17007;DHT22;8620;51.168;4.154;2022-10-16T08:48:30;18.60;99.90
17007;DHT22;8620;51.168;4.154;2022-10-16T08:51:36;18.90;99.90
17007;DHT22;8620;51.168;4.154;2022-10-16T08:54:45;17.70;99.90
17007;DHT22;8620;51.168;4.154;2022-10-16T08:57:26;18.20;99.90
17007;DHT22;8620;51.168;4.154;2022-10-16T09:00:12;17.90;99.90
17007;DHT22;8620;51.168;4.154;2022-10-16T09:05:57;17.60;99.90
17007;DHT22;8620;51.168;4.154;2022-10-16T09:08:46;17.80;99.90
17007;DHT22;8620;51.168;4.154;2022-10-16T09:21:06;18.80;99.90
17007;DHT22;8620;51.168;4.154;2022-10-16T09:24:18;18.80;99.90
17007;DHT22;8620;51.168;4.154;2022-10-16T09:26:57;19.10;99.90
17007;DHT22;8620;51.168;4.154;2022-10-16T09:29:49;19.20;99.90
17007;DHT22;8620;51.168;4.154;2022-10-16T09:32:35;19.90;99.90
17007;DHT22;8620;51.168;4.154;2022-10-16T09:35:13;19.10;99.90
17007;DHT22;8620;51.168;4.154;2022-10-16T09:37:55;19.20;99.90
17007;DHT22;8620;51.168;4.154;2022-10-16T09:40:54;19.70;99.90
17007;DHT22;8620;51.168;4.154;2022-10-16T09:44:00;19.40;99.90
17007;DHT22;8620;51.168;4.154;2022-10-16T09:46:34;18.90;99.90
17007;DHT22;8620;51.168;4.154;2022-10-16T09:49:26;19.10;99.90
17007;DHT22;8620;51.168;4.154;2022-10-16T09:52:30;19.00;99.90
17007;DHT22;8620;51.168;4.154;2022-10-16T09:55:02;18.50;99.90
17007;DHT22;8620;51.168;4.154;2022-10-16T09:57:58;18.40;99.90
17007;DHT22;8620;51.168;4.154;2022-10-16T10:00:32;18.70;99.90
17007;DHT22;8620;51.168;4.154;2022-10-16T10:03:01;18.50;99.90
17007;DHT22;8620;51.168;4.154;2022-10-16T10:05:50;18.70;99.90
17007;DHT22;8620;51.168;4.154;2022-10-16T10:08:24;18.40;99.90
17007;DHT22;8620;51.168;4.154;2022-10-16T10:11:10;17.90;99.90
17007;DHT22;8620;51.168;4.154;2022-10-16T10:13:49;18.40;99.90
17007;DHT22;8620;51.168;4.154;2022-10-16T10:16:38;18.40;99.90
17007;DHT22;8620;51.168;4.154;2022-10-16T10:19:42;18.30;99.90
17007;DHT22;8620;51.168;4.154;2022-10-16T11:10:03;19.90;99.90
17007;DHT22;8620;51.168;4.154;2022-10-16T11:16:04;20.20;99.90
17007;DHT22;8620;51.168;4.154;2022-10-16T11:37:20;20.10;99.90
17007;DHT22;8620;51.168;4.154;2022-10-16T11:43:51;19.90;99.90
17007;DHT22;8620;51.168;4.154;2022-10-16T11:47:01;20.90;99.90
17007;DHT22;8620;51.168;4.154;2022-10-16T11:50:09;21.50;99.90
17007;DHT22;8620;51.168;4.154;2022-10-16T12:09:11;20.30;99.90
17007;DHT22;8620;51.168;4.154;2022-10-16T12:19:31;20.30;99.90
17007;DHT22;8620;51.168;4.154;2022-10-16T12:25:58;21.90;99.90
17007;DHT22;8620;51.168;4.154;2022-10-16T12:28:48;22.40;99.90
17007;DHT22;8620;51.168;4.154;2022-10-16T12:31:17;21.30;99.90
17007;DHT22;8620;51.168;4.154;2022-10-16T12:34:20;21.40;99.90
17007;DHT22;8620;51.168;4.154;2022-10-16T12:37:53;21.40;99.90
17007;DHT22;8620;51.168;4.154;2022-10-16T12:40:54;21.10;99.90
17007;DHT22;8620;51.168;4.154;2022-10-16T12:43:24;21.50;99.90
17007;DHT22;8620;51.168;4.154;2022-10-16T12:48:39;21.90;99.90
17007;DHT22;8620;51.168;4.154;2022-10-16T12:51:34;22.00;99.90
17007;DHT22;8620;51.168;4.154;2022-10-16T13:09:02;21.20;99.90
17007;DHT22;8620;51.168;4.154;2022-10-16T13:12:12;20.60;99.90
17007;DHT22;8620;51.168;4.154;2022-10-16T13:18:00;21.30;99.90
17007;DHT22;8620;51.168;4.154;2022-10-16T13:35:35;20.50;99.90
17007;DHT22;8620;51.168;4.154;2022-10-16T13:38:15;20.40;99.90
17007;DHT22;8620;51.168;4.154;2022-10-16T13:43:42;20.20;99.90
17007;DHT22;8620;51.168;4.154;2022-10-16T13:46:58;20.30;99.90
17007;DHT22;8620;51.168;4.154;2022-10-16T13:50:04;20.70;99.90
17007;DHT22;8620;51.168;4.154;2022-10-16T13:53:11;20.60;99.90
17007;DHT22;8620;51.168;4.154;2022-10-16T13:55:56;20.70;99.90
17007;DHT22;8620;51.168;4.154;2022-10-16T13:59:02;20.30;99.90
17007;DHT22;8620;51.168;4.154;2022-10-16T14:01:49;20.30;99.90
17007;DHT22;8620;51.168;4.154;2022-10-16T14:04:55;20.20;99.90
17007;DHT22;8620;51.168;4.154;2022-10-16T14:11:11;20.10;99.90
17007;DHT22;8620;51.168;4.154;2022-10-16T14:14:15;20.10;99.90
17007;DHT22;8620;51.168;4.154;2022-10-16T14:16:59;19.70;99.90
17007;DHT22;8620;51.168;4.154;2022-10-16T14:19:48;19.40;99.90
17007;DHT22;8620;51.168;4.154;2022-10-16T14:26:27;19.70;99.90
17007;DHT22;8620;51.168;4.154;2022-10-16T14:29:09;19.90;99.90
17007;DHT22;8620;51.168;4.154;2022-10-16T14:31:37;20.00;99.90
17007;DHT22;8620;51.168;4.154;2022-10-16T14:34:22;19.90;99.90
17007;DHT22;8620;51.168;4.154;2022-10-16T14:40:37;19.80;99.90
17007;DHT22;8620;51.168;4.154;2022-10-16T14:43:04;19.90;99.90
17007;DHT22;8620;51.168;4.154;2022-10-16T14:45:33;19.80;99.90
17007;DHT22;8620;51.168;4.154;2022-10-16T14:48:36;19.90;99.90
17007;DHT22;8620;51.168;4.154;2022-10-16T14:51:52;19.60;99.90
17007;DHT22;8620;51.168;4.154;2022-10-16T14:54:21;19.70;99.90
17007;DHT22;8620;51.168;4.154;2022-10-16T14:56:52;19.90;99.90
17007;DHT22;8620;51.168;4.154;2022-10-16T15:08:25;19.70;99.90
17007;DHT22;8620;51.168;4.154;2022-10-16T15:11:13;19.70;99.90
17007;DHT22;8620;51.168;4.154;2022-10-16T15:13:41;19.60;99.90
17007;DHT22;8620;51.168;4.154;2022-10-16T15:16:11;19.80;99.90
17007;DHT22;8620;51.168;4.154;2022-10-16T15:18:59;19.70;99.90
17007;DHT22;8620;51.168;4.154;2022-10-16T15:21:32;19.70;99.90
17007;DHT22;8620;51.168;4.154;2022-10-16T15:24:37;19.50;99.90
17007;DHT22;8620;51.168;4.154;2022-10-16T15:27:25;19.20;99.90
17007;DHT22;8620;51.168;4.154;2022-10-16T15:30:29;19.30;99.90
17007;DHT22;8620;51.168;4.154;2022-10-16T15:33:18;19.30;99.90
17007;DHT22;8620;51.168;4.154;2022-10-16T15:36:19;19.30;99.90
17007;DHT22;8620;51.168;4.154;2022-10-16T15:39:16;19.40;99.90
17007;DHT22;8620;51.168;4.154;2022-10-16T15:42:03;19.60;99.90
17007;DHT22;8620;51.168;4.154;2022-10-16T15:45:07;19.50;99.90
17007;DHT22;8620;51.168;4.154;2022-10-16T15:51:24;19.60;99.90
17007;DHT22;8620;51.168;4.154;2022-10-16T15:54:10;19.80;99.90
17007;DHT22;8620;51.168;4.154;2022-10-16T15:57:16;19.40;99.90
17007;DHT22;8620;51.168;4.154;2022-10-16T16:00:17;19.30;99.90
17007;DHT22;8620;51.168;4.154;2022-10-16T16:02:53;19.50;99.90
17007;DHT22;8620;51.168;4.154;2022-10-16T16:05:20;19.50;99.90
17007;DHT22;8620;51.168;4.154;2022-10-16T16:08:25;19.60;99.90
17007;DHT22;8620;51.168;4.154;2022-10-16T16:14:42;19.30;99.90
17007;DHT22;8620;51.168;4.154;2022-10-16T16:17:47;19.00;99.90
17007;DHT22;8620;51.168;4.154;2022-10-16T16:20:49;18.80;99.90
17007;DHT22;8620;51.168;4.154;2022-10-16T16:23:28;18.90;99.90
17007;DHT22;8620;51.168;4.154;2022-10-16T16:30:05;18.70;99.90
17007;DHT22;8620;51.168;4.154;2022-10-16T16:33:10;18.70;99.90
17007;DHT22;8620;51.168;4.154;2022-10-16T16:36:17;18.70;99.90
17007;DHT22;8620;51.168;4.154;2022-10-16T16:39:09;18.90;99.90
17007;DHT22;8620;51.168;4.154;2022-10-16T16:41:36;19.00;99.90
17007;DHT22;8620;51.168;4.154;2022-10-16T16:44:36;18.90;99.90
17007;DHT22;8620;51.168;4.154;2022-10-16T16:47:27;18.70;99.90
17007;DHT22;8620;51.168;4.154;2022-10-16T16:50:31;18.50;99.90
17007;DHT22;8620;51.168;4.154;2022-10-16T16:53:02;18.60;99.90
17007;DHT22;8620;51.168;4.154;2022-10-16T16:55:28;18.60;99.90
17007;DHT22;8620;51.168;4.154;2022-10-16T16:58:19;18.60;99.90
17007;DHT22;8620;51.168;4.154;2022-10-16T17:00:52;18.70;99.90
17007;DHT22;8620;51.168;4.154;2022-10-16T17:03:18;18.70;99.90
17007;DHT22;8620;51.168;4.154;2022-10-16T17:05:55;18.50;99.90
17007;DHT22;8620;51.168;4.154;2022-10-16T17:08:22;18.50;99.90
17007;DHT22;8620;51.168;4.154;2022-10-16T17:10:48;18.60;99.90
17007;DHT22;8620;51.168;4.154;2022-10-16T17:13:25;18.70;99.90
17007;DHT22;8620;51.168;4.154;2022-10-16T17:16:20;18.70;99.90
17007;DHT22;8620;51.168;4.154;2022-10-16T17:19:50;18.50;99.90
17007;DHT22;8620;51.168;4.154;2022-10-16T17:22:17;18.20;99.90
17007;DHT22;8620;51.168;4.154;2022-10-16T17:24:44;18.10;99.90
17007;DHT22;8620;51.168;4.154;2022-10-16T17:27:10;18.30;99.90
17007;DHT22;8620;51.168;4.154;2022-10-16T17:29:37;18.30;99.90
17007;DHT22;8620;51.168;4.154;2022-10-16T17:32:03;18.40;99.90
17007;DHT22;8620;51.168;4.154;2022-10-16T17:34:29;18.50;99.90
17007;DHT22;8620;51.168;4.154;2022-10-16T17:36:55;18.50;99.90
17007;DHT22;8620;51.168;4.154;2022-10-16T17:39:26;18.60;99.90
17007;DHT22;8620;51.168;4.154;2022-10-16T17:41:59;18.50;99.90
17007;DHT22;8620;51.168;4.154;2022-10-16T17:44:25;18.50;99.90
17007;DHT22;8620;51.168;4.154;2022-10-16T17:46:57;18.50;99.90
17007;DHT22;8620;51.168;4.154;2022-10-16T17:49:28;18.30;99.90
17007;DHT22;8620;51.168;4.154;2022-10-16T17:52:35;17.90;99.90
17007;DHT22;8620;51.168;4.154;2022-10-16T17:55:07;17.90;99.90
17007;DHT22;8620;51.168;4.154;2022-10-16T17:57:36;18.00;99.90
17007;DHT22;8620;51.168;4.154;2022-10-16T18:00:45;17.90;99.90
17007;DHT22;8620;51.168;4.154;2022-10-16T18:03:46;17.80;99.90
17007;DHT22;8620;51.168;4.154;2022-10-16T18:06:15;17.90;99.90
17007;DHT22;8620;51.168;4.154;2022-10-16T18:08:41;17.80;99.90
17007;DHT22;8620;51.168;4.154;2022-10-16T18:11:08;17.60;99.90
17007;DHT22;8620;51.168;4.154;2022-10-16T18:13:40;17.40;99.90
17007;DHT22;8620;51.168;4.154;2022-10-16T18:16:18;17.30;99.90
17007;DHT22;8620;51.168;4.154;2022-10-16T18:19:09;17.40;99.90
17007;DHT22;8620;51.168;4.154;2022-10-16T18:25:15;17.80;99.90
17007;DHT22;8620;51.168;4.154;2022-10-16T18:27:44;17.80;99.90
17007;DHT22;8620;51.168;4.154;2022-10-16T18:30:11;17.70;99.90
17007;DHT22;8620;51.168;4.154;2022-10-16T18:32:39;17.60;99.90
17007;DHT22;8620;51.168;4.154;2022-10-16T18:35:08;17.80;99.90
17007;DHT22;8620;51.168;4.154;2022-10-16T18:37:37;17.50;99.90
17007;DHT22;8620;51.168;4.154;2022-10-16T18:40:12;17.40;99.90
17007;DHT22;8620;51.168;4.154;2022-10-16T18:42:40;17.50;99.90
17007;DHT22;8620;51.168;4.154;2022-10-16T18:45:53;17.30;99.90
17007;DHT22;8620;51.168;4.154;2022-10-16T18:48:58;17.20;99.90
17007;DHT22;8620;51.168;4.154;2022-10-16T18:52:02;17.30;99.90
17007;DHT22;8620;51.168;4.154;2022-10-16T18:55:07;17.30;99.90
17007;DHT22;8620;51.168;4.154;2022-10-16T18:58:09;17.20;99.90
17007;DHT22;8620;51.168;4.154;2022-10-16T19:01:22;17.20;99.90
17007;DHT22;8620;51.168;4.154;2022-10-16T19:07:58;17.00;99.90
17007;DHT22;8620;51.168;4.154;2022-10-16T19:11:04;17.00;99.90
17007;DHT22;8620;51.168;4.154;2022-10-16T19:14:26;16.70;99.90
17007;DHT22;8620;51.168;4.154;2022-10-16T19:17:29;16.60;99.90
17007;DHT22;8620;51.168;4.154;2022-10-16T19:23:45;16.60;99.90
17007;DHT22;8620;51.168;4.154;2022-10-16T19:26:51;16.60;99.90
17007;DHT22;8620;51.168;4.154;2022-10-16T19:29:49;16.60;99.90
17007;DHT22;8620;51.168;4.154;2022-10-16T19:32:49;16.60;99.90
17007;DHT22;8620;51.168;4.154;2022-10-16T19:39:13;16.60;99.90
17007;DHT22;8620;51.168;4.154;2022-10-16T19:42:17;16.70;99.90
17007;DHT22;8620;51.168;4.154;2022-10-16T19:48:23;16.60;99.90
17007;DHT22;8620;51.168;4.154;2022-10-16T19:51:35;16.70;99.90
17007;DHT22;8620;51.168;4.154;2022-10-16T19:54:42;16.40;99.90
17007;DHT22;8620;51.168;4.154;2022-10-16T20:00:58;16.40;99.90
17007;DHT22;8620;51.168;4.154;2022-10-16T20:04:01;16.40;99.90
17007;DHT22;8620;51.168;4.154;2022-10-16T20:07:15;16.40;99.90
17007;DHT22;8620;51.168;4.154;2022-10-16T20:10:16;16.40;99.90
17007;DHT22;8620;51.168;4.154;2022-10-16T20:13:19;16.30;99.90
17007;DHT22;8620;51.168;4.154;2022-10-16T20:16:30;16.30;99.90
17007;DHT22;8620;51.168;4.154;2022-10-16T20:19:35;16.20;99.90
17007;DHT22;8620;51.168;4.154;2022-10-16T20:22:44;16.20;99.90
17007;DHT22;8620;51.168;4.154;2022-10-16T20:26:03;16.10;99.90
17007;DHT22;8620;51.168;4.154;2022-10-16T20:29:26;16.10;99.90
17007;DHT22;8620;51.168;4.154;2022-10-16T20:32:32;16.10;99.90
17007;DHT22;8620;51.168;4.154;2022-10-16T20:38:53;16.00;99.90
17007;DHT22;8620;51.168;4.154;2022-10-16T20:41:54;16.00;99.90
17007;DHT22;8620;51.168;4.154;2022-10-16T20:45:03;15.90;99.90
17007;DHT22;8620;51.168;4.154;2022-10-16T20:48:24;15.90;99.90
17007;DHT22;8620;51.168;4.154;2022-10-16T20:52:05;15.80;99.90
17007;DHT22;8620;51.168;4.154;2022-10-16T20:55:11;15.80;99.90
17007;DHT22;8620;51.168;4.154;2022-10-16T20:58:12;15.70;99.90
17007;DHT22;8620;51.168;4.154;2022-10-16T21:01:23;15.70;99.90
17007;DHT22;8620;51.168;4.154;2022-10-16T21:07:37;15.60;99.90
17007;DHT22;8620;51.168;4.154;2022-10-16T21:10:38;15.80;99.90
17007;DHT22;8620;51.168;4.154;2022-10-16T21:13:42;15.80;99.90
17007;DHT22;8620;51.168;4.154;2022-10-16T21:16:43;15.80;99.90
17007;DHT22;8620;51.168;4.154;2022-10-16T21:19:51;15.80;99.90